Time,TemperatureF,DewpointF,PressureIn,WindDirection,WindDirectionDegrees,WindSpeedMPH,WindSpeedGustMPH,Humidity,HourlyPrecipIn,Conditions,Clouds,dailyrainin,SoftwareType,DateUTC
2013-01-16 00:00:00,17.2,10.3,30.09,NW,305,0.0,0.0,74,0.00,,---,0.00,VWS V14.01,2013-01-16 05:00:00,
2013-01-16 00:02:00,17.2,10.3,30.09,NW,305,0.0,0.0,74,0.00,,---,0.00,VWS V14.01,2013-01-16 05:02:00,
2013-01-16 00:03:00,17.2,10.3,30.09,NW,305,0.0,0.0,74,0.00,,---,0.00,VWS V14.01,2013-01-16 05:03:00,
2013-01-16 00:09:00,17.0,10.5,30.09,NW,305,0.0,0.0,75,0.00,,---,0.00,VWS V14.01,2013-01-16 05:09:00,
2013-01-16 00:14:00,17.0,10.5,30.09,NW,305,0.0,0.0,75,0.00,,---,0.00,VWS V14.01,2013-01-16 05:14:00,
2013-01-16 00:19:00,16.8,10.0,30.09,NW,305,0.0,0.0,74,0.00,,---,0.00,VWS V14.01,2013-01-16 05:19:00,
2013-01-16 00:24:00,16.6,9.5,30.09,NW,305,0.0,0.0,73,0.00,,---,0.00,VWS V14.01,2013-01-16 05:24:00,
2013-01-16 00:29:00,16.5,9.3,30.09,NW,305,0.0,0.0,73,0.00,,---,0.00,VWS V14.01,2013-01-16 05:29:00,
2013-01-16 00:34:00,16.5,9.3,30.09,NW,305,0.0,0.0,73,0.00,,---,0.00,VWS V14.01,2013-01-16 05:34:00,
2013-01-16 00:39:00,16.5,9.6,30.09,NW,305,0.0,0.0,74,0.00,,---,0.00,VWS V14.01,2013-01-16 05:39:00,
2013-01-16 00:44:00,16.5,9.6,30.09,NW,305,0.0,0.0,74,0.00,,---,0.00,VWS V14.01,2013-01-16 05:44:00,
2013-01-16 00:49:00,16.5,9.9,30.06,NW,305,0.0,0.0,75,0.00,,---,0.00,VWS V14.01,2013-01-16 05:49:00,
2013-01-16 00:54:00,16.5,9.9,30.06,NW,305,0.0,0.0,75,0.00,,---,0.00,VWS V14.01,2013-01-16 05:54:00,
2013-01-16 00:59:00,16.3,9.8,30.06,NW,305,0.0,0.0,75,0.00,,---,0.00,VWS V14.01,2013-01-16 05:59:00,
2013-01-16 01:04:00,16.1,9.9,30.06,NW,305,0.0,0.0,76,0.00,,---,0.00,VWS V14.01,2013-01-16 06:04:00,
2013-01-16 01:09:00,15.9,9.7,30.06,NW,305,0.0,0.0,76,0.00,,---,0.00,VWS V14.01,2013-01-16 06:09:00,
2013-01-16 01:14:00,15.9,9.7,30.06,NW,305,0.0,0.0,76,0.00,,---,0.00,VWS V14.01,2013-01-16 06:14:00,
2013-01-16 01:19:00,15.9,9.7,30.06,NW,305,0.0,0.0,76,0.00,,---,0.00,VWS V14.01,2013-01-16 06:19:00,
2013-01-16 01:24:00,15.7,8.9,30.06,South,170,0.0,0.0,74,0.00,,---,0.00,VWS V14.01,2013-01-16 06:24:00,
2013-01-16 01:29:00,15.6,8.8,30.06,South,170,0.0,0.0,74,0.00,,---,0.00,VWS V14.01,2013-01-16 06:29:00,
2013-01-16 01:35:00,15.6,8.8,30.06,South,170,0.0,0.0,74,0.00,,---,0.00,VWS V14.01,2013-01-16 06:35:00,
2013-01-16 01:40:00,15.6,9.1,30.06,South,170,0.0,0.0,75,0.00,,---,0.00,VWS V14.01,2013-01-16 06:40:00,
2013-01-16 01:45:00,15.6,8.8,30.06,South,170,0.0,0.0,74,0.00,,---,0.00,VWS V14.01,2013-01-16 06:45:00,
2013-01-16 01:50:00,15.4,8.9,30.03,South,170,0.0,0.0,75,0.00,,---,0.00,VWS V14.01,2013-01-16 06:50:00,
2013-01-16 01:55:00,15.2,8.7,30.03,South,170,0.0,0.0,75,0.00,,---,0.00,VWS V14.01,2013-01-16 06:55:00,
2013-01-16 02:00:00,15.4,8.6,30.03,South,170,0.0,0.0,74,0.00,,---,0.00,VWS V14.01,2013-01-16 07:00:00,
2013-01-16 02:05:00,15.2,8.4,30.03,South,170,0.0,0.0,74,0.00,,---,0.00,VWS V14.01,2013-01-16 07:05:00,
2013-01-16 02:10:00,15.2,8.7,30.03,ESE,102,0.0,0.0,75,0.00,,---,0.00,VWS V14.01,2013-01-16 07:10:00,
2013-01-16 02:15:00,15.4,8.9,30.03,ESE,102,0.0,0.0,75,0.00,,---,0.00,VWS V14.01,2013-01-16 07:15:00,
2013-01-16 02:20:00,15.4,8.9,30.03,ESE,102,0.0,0.0,75,0.00,,---,0.00,VWS V14.01,2013-01-16 07:20:00,
2013-01-16 02:25:00,15.2,9.0,30.03,South,170,0.0,0.0,76,0.00,,---,0.00,VWS V14.01,2013-01-16 07:25:00,
2013-01-16 02:30:00,15.4,8.9,30.03,South,170,0.0,0.0,75,0.00,,---,0.00,VWS V14.01,2013-01-16 07:30:00,
2013-01-16 02:35:00,15.4,8.9,30.03,South,170,0.0,0.0,75,0.00,,---,0.00,VWS V14.01,2013-01-16 07:35:00,
2013-01-16 02:40:00,15.4,8.9,30.03,South,170,0.0,0.0,75,0.00,,---,0.00,VWS V14.01,2013-01-16 07:40:00,
2013-01-16 02:46:00,15.6,9.1,30.03,South,170,0.0,0.0,75,0.00,,---,0.00,VWS V14.01,2013-01-16 07:46:00,
2013-01-16 02:51:00,15.4,8.9,30.03,NW,305,0.0,0.0,75,0.00,,---,0.00,VWS V14.01,2013-01-16 07:51:00,
2013-01-16 02:56:00,15.4,9.2,30.03,WNW,282,0.0,0.0,76,0.00,,---,0.00,VWS V14.01,2013-01-16 07:56:00,
2013-01-16 03:01:00,15.4,8.9,30.03,WNW,282,0.0,0.0,75,0.00,,---,0.00,VWS V14.01,2013-01-16 08:01:00,
2013-01-16 03:06:00,15.4,8.9,30.03,NW,305,0.0,0.0,75,0.00,,---,0.00,VWS V14.01,2013-01-16 08:06:00,
2013-01-16 03:11:00,15.4,8.9,30.03,NW,305,0.0,0.0,75,0.00,,---,0.00,VWS V14.01,2013-01-16 08:11:00,
2013-01-16 03:16:00,15.4,9.2,30.03,North,350,0.0,0.0,76,0.00,,---,0.00,VWS V14.01,2013-01-16 08:16:00,
2013-01-16 03:21:00,15.4,9.2,30.03,NW,305,0.0,0.0,76,0.00,,---,0.00,VWS V14.01,2013-01-16 08:21:00,
2013-01-16 03:26:00,15.2,9.0,30.03,NW,305,0.0,0.0,76,0.00,,---,0.00,VWS V14.01,2013-01-16 08:26:00,
2013-01-16 03:31:00,15.2,9.0,30.03,NW,305,0.0,0.0,76,0.00,,---,0.00,VWS V14.01,2013-01-16 08:31:00,
2013-01-16 03:36:00,14.8,8.7,30.03,NNW,328,0.0,0.0,76,0.00,,---,0.00,VWS V14.01,2013-01-16 08:36:00,
2013-01-16 03:41:00,14.7,8.5,30.03,NNW,328,0.0,0.0,76,0.00,,---,0.00,VWS V14.01,2013-01-16 08:41:00,
2013-01-16 03:46:00,14.8,8.7,30.03,NNW,328,0.0,0.0,76,0.00,,---,0.00,VWS V14.01,2013-01-16 08:46:00,
2013-01-16 03:51:00,14.8,8.4,30.03,NNW,328,0.0,0.0,75,0.00,,---,0.00,VWS V14.01,2013-01-16 08:51:00,
2013-01-16 03:56:00,14.7,8.2,30.03,NNW,328,0.0,0.0,75,0.00,,---,0.00,VWS V14.01,2013-01-16 08:56:00,
2013-01-16 04:01:00,14.7,8.2,30.03,NNW,328,0.0,0.0,75,0.00,,---,0.00,VWS V14.01,2013-01-16 09:01:00,
2013-01-16 04:06:00,14.8,8.4,30.03,NNW,328,0.0,0.0,75,0.00,,---,0.00,VWS V14.01,2013-01-16 09:06:00,
2013-01-16 04:11:00,14.8,8.4,30.03,NNW,328,0.0,0.0,75,0.00,,---,0.00,VWS V14.01,2013-01-16 09:11:00,
2013-01-16 04:16:00,14.8,8.4,30.03,NNW,328,0.0,0.0,75,0.00,,---,0.00,VWS V14.01,2013-01-16 09:16:00,
2013-01-16 04:22:00,14.8,8.4,30.03,South,170,0.0,0.0,75,0.00,,---,0.00,VWS V14.01,2013-01-16 09:22:00,
2013-01-16 04:27:00,15.2,8.7,30.03,South,170,0.0,0.0,75,0.00,,---,0.00,VWS V14.01,2013-01-16 09:27:00,
2013-01-16 04:32:00,15.4,8.9,30.00,SE,125,0.0,0.0,75,0.00,,---,0.00,VWS V14.01,2013-01-16 09:32:00,
2013-01-16 04:37:00,15.9,9.7,30.00,SW,215,0.0,0.0,76,0.00,,---,0.00,VWS V14.01,2013-01-16 09:37:00,
2013-01-16 04:42:00,16.1,9.9,30.00,NW,305,0.0,0.0,76,0.00,,---,0.00,VWS V14.01,2013-01-16 09:42:00,
2013-01-16 04:47:00,16.1,10.2,30.00,SSE,148,0.0,0.0,77,0.00,,---,0.00,VWS V14.01,2013-01-16 09:47:00,
2013-01-16 04:52:00,16.3,10.4,30.00,SSE,148,0.0,0.0,77,0.00,,---,0.00,VWS V14.01,2013-01-16 09:52:00,
2013-01-16 04:57:00,16.3,10.1,30.00,SW,215,0.0,0.0,76,0.00,,---,0.00,VWS V14.01,2013-01-16 09:57:00,
2013-01-16 05:02:00,16.5,10.2,30.00,SW,215,0.0,0.0,76,0.00,,---,0.00,VWS V14.01,2013-01-16 10:02:00,
2013-01-16 05:07:00,16.5,10.5,30.00,West,260,0.0,0.0,77,0.00,,---,0.00,VWS V14.01,2013-01-16 10:07:00,
2013-01-16 05:12:00,16.6,10.7,30.00,West,260,0.0,0.0,77,0.00,,---,0.00,VWS V14.01,2013-01-16 10:12:00,
2013-01-16 05:17:00,16.8,11.2,29.97,West,260,0.0,0.0,78,0.00,,---,0.00,VWS V14.01,2013-01-16 10:17:00,
2013-01-16 05:22:00,17.0,11.3,29.97,West,260,0.0,0.0,78,0.00,,---,0.00,VWS V14.01,2013-01-16 10:22:00,
2013-01-16 05:27:00,17.2,11.5,29.97,West,260,0.0,0.0,78,0.00,,---,0.00,VWS V14.01,2013-01-16 10:27:00,
2013-01-16 05:32:00,17.4,11.7,29.97,West,260,0.0,0.0,78,0.00,,---,0.00,VWS V14.01,2013-01-16 10:32:00,
2013-01-16 05:37:00,17.5,11.9,29.97,West,260,0.0,0.0,78,0.00,,---,0.00,VWS V14.01,2013-01-16 10:37:00,
2013-01-16 05:42:00,17.7,12.0,29.97,West,260,0.0,0.0,78,0.00,,---,0.00,VWS V14.01,2013-01-16 10:42:00,
2013-01-16 05:47:00,17.7,12.0,29.97,SE,125,0.0,0.0,78,0.00,,---,0.00,VWS V14.01,2013-01-16 10:47:00,
2013-01-16 05:52:00,17.9,11.9,29.97,South,170,0.0,0.0,77,0.00,,---,0.00,VWS V14.01,2013-01-16 10:52:00,
2013-01-16 05:57:00,18.1,12.4,29.97,South,170,0.0,0.0,78,0.00,,---,0.00,VWS V14.01,2013-01-16 10:57:00,
2013-01-16 06:03:00,18.3,12.6,29.97,SSE,148,0.0,0.0,78,0.00,,---,0.00,VWS V14.01,2013-01-16 11:03:00,
2013-01-16 06:08:00,18.4,12.7,29.97,South,170,0.0,0.0,78,0.00,,---,0.00,VWS V14.01,2013-01-16 11:08:00,
2013-01-16 06:13:00,18.4,12.4,29.97,SW,215,0.0,0.0,77,0.00,,---,0.00,VWS V14.01,2013-01-16 11:13:00,
2013-01-16 06:18:00,18.6,12.9,29.97,SW,215,0.0,0.0,78,0.00,,---,0.00,VWS V14.01,2013-01-16 11:18:00,
2013-01-16 06:23:00,18.4,12.7,29.97,SW,215,0.0,0.0,78,0.00,,---,0.00,VWS V14.01,2013-01-16 11:23:00,
2013-01-16 06:28:00,18.3,12.6,29.97,SW,215,0.0,0.0,78,0.00,,---,0.00,VWS V14.01,2013-01-16 11:28:00,
2013-01-16 06:33:00,18.1,12.4,29.97,South,170,0.0,0.0,78,0.00,,---,0.00,VWS V14.01,2013-01-16 11:33:00,
2013-01-16 06:38:00,17.9,12.2,29.97,South,170,0.0,0.0,78,0.00,,---,0.00,VWS V14.01,2013-01-16 11:38:00,
2013-01-16 06:43:00,17.7,12.0,29.97,South,170,0.0,0.0,78,0.00,,---,0.00,VWS V14.01,2013-01-16 11:43:00,
2013-01-16 06:48:00,17.7,12.0,29.94,South,170,0.0,0.0,78,0.00,,---,0.00,VWS V14.01,2013-01-16 11:48:00,
2013-01-16 06:53:00,17.5,11.6,29.94,South,170,0.0,0.0,77,0.00,,---,0.00,VWS V14.01,2013-01-16 11:53:00,
2013-01-16 06:58:00,17.2,11.2,29.94,South,170,0.0,0.0,77,0.00,,---,0.00,VWS V14.01,2013-01-16 11:58:00,
2013-01-16 07:03:00,17.0,11.3,29.94,South,170,0.0,0.0,78,0.00,,---,0.00,VWS V14.01,2013-01-16 12:03:00,
2013-01-16 07:08:00,17.0,11.3,29.94,South,170,0.0,0.0,78,0.00,,---,0.00,VWS V14.01,2013-01-16 12:08:00,
2013-01-16 07:13:00,16.6,11.0,29.94,SW,215,0.0,0.0,78,0.00,,---,0.00,VWS V14.01,2013-01-16 12:13:00,
2013-01-16 07:18:00,16.5,10.8,29.94,South,170,0.0,0.0,78,0.00,,---,0.00,VWS V14.01,2013-01-16 12:18:00,
2013-01-16 07:23:00,16.5,10.8,29.94,South,170,0.0,0.0,78,0.00,,---,0.00,VWS V14.01,2013-01-16 12:23:00,
2013-01-16 07:28:00,16.5,10.8,29.94,South,170,0.0,0.0,78,0.00,,---,0.00,VWS V14.01,2013-01-16 12:28:00,
2013-01-16 07:34:00,16.3,10.6,29.94,SW,215,0.0,0.0,78,0.00,,---,0.00,VWS V14.01,2013-01-16 12:34:00,
2013-01-16 07:39:00,16.5,10.8,29.94,South,170,0.0,0.0,78,0.00,,---,0.00,VWS V14.01,2013-01-16 12:39:00,
2013-01-16 07:44:00,16.5,10.8,29.94,SW,215,0.0,0.0,78,0.00,,---,0.00,VWS V14.01,2013-01-16 12:44:00,
2013-01-16 07:49:00,16.3,10.6,29.94,South,170,0.0,0.0,78,0.00,,---,0.00,VWS V14.01,2013-01-16 12:49:00,
2013-01-16 07:54:00,16.1,10.5,29.94,SW,215,0.0,0.0,78,0.00,,---,0.00,VWS V14.01,2013-01-16 12:54:00,
2013-01-16 07:59:00,16.1,10.5,29.94,SW,215,0.0,0.0,78,0.00,,---,0.00,VWS V14.01,2013-01-16 12:59:00,
2013-01-16 08:04:00,16.1,10.5,29.94,SW,215,0.0,0.0,78,0.00,,---,0.00,VWS V14.01,2013-01-16 13:04:00,
2013-01-16 08:09:00,15.9,10.3,29.94,SW,215,0.0,0.0,78,0.00,,---,0.00,VWS V14.01,2013-01-16 13:09:00,
2013-01-16 08:14:00,15.9,10.3,29.94,SW,215,0.0,0.0,78,0.00,,---,0.00,VWS V14.01,2013-01-16 13:14:00,
2013-01-16 08:19:00,15.6,9.9,29.94,South,170,0.0,0.0,78,0.00,,---,0.00,VWS V14.01,2013-01-16 13:19:00,
2013-01-16 08:24:00,15.6,9.9,29.94,South,170,0.0,0.0,78,0.00,,---,0.00,VWS V14.01,2013-01-16 13:24:00,
2013-01-16 08:29:00,15.9,10.3,29.94,South,170,0.0,0.0,78,0.00,,---,0.00,VWS V14.01,2013-01-16 13:29:00,
2013-01-16 08:34:00,16.1,10.5,29.94,SW,215,0.0,0.0,78,0.00,,---,0.00,VWS V14.01,2013-01-16 13:34:00,
2013-01-16 08:39:00,16.6,11.3,29.94,South,170,0.0,0.0,79,0.00,,---,0.00,VWS V14.01,2013-01-16 13:39:00,
2013-01-16 08:44:00,17.0,11.6,29.94,South,170,0.0,0.0,79,0.00,,---,0.00,VWS V14.01,2013-01-16 13:44:00,
2013-01-16 08:49:00,17.4,12.0,29.94,South,170,0.0,0.0,79,0.00,,---,0.00,VWS V14.01,2013-01-16 13:49:00,
2013-01-16 08:54:00,17.7,12.3,29.94,South,170,0.0,0.0,79,0.00,,---,0.00,VWS V14.01,2013-01-16 13:54:00,
2013-01-16 08:59:00,18.1,12.7,29.94,SW,215,0.0,0.0,79,0.00,,---,0.00,VWS V14.01,2013-01-16 13:59:00,
2013-01-16 09:04:00,18.6,13.5,29.94,SW,215,0.0,0.0,80,0.00,,---,0.00,VWS V14.01,2013-01-16 14:04:00,
2013-01-16 09:09:00,19.0,13.6,29.94,SW,215,0.0,0.0,79,0.00,,---,0.00,VWS V14.01,2013-01-16 14:09:00,
2013-01-16 09:14:00,19.3,14.2,29.94,SW,215,0.0,0.0,80,0.00,,---,0.00,VWS V14.01,2013-01-16 14:14:00,
2013-01-16 09:20:00,19.7,14.5,29.94,SW,215,0.0,0.0,80,0.00,,---,0.00,VWS V14.01,2013-01-16 14:20:00,
2013-01-16 09:25:00,19.9,14.7,29.94,SW,215,0.0,0.0,80,0.00,,---,0.00,VWS V14.01,2013-01-16 14:25:00,
2013-01-16 09:30:00,20.4,15.2,29.94,SW,215,0.0,0.0,80,0.00,,---,0.00,VWS V14.01,2013-01-16 14:30:00,
2013-01-16 09:35:00,20.6,15.7,29.94,SW,215,0.0,0.0,81,0.00,,---,0.00,VWS V14.01,2013-01-16 14:35:00,
2013-01-16 09:40:00,21.3,16.1,29.94,SW,215,0.0,0.0,80,0.00,,---,0.00,VWS V14.01,2013-01-16 14:40:00,
2013-01-16 09:45:00,21.9,16.6,29.94,SW,215,0.0,0.0,80,0.00,,---,0.00,VWS V14.01,2013-01-16 14:45:00,
2013-01-16 09:50:00,22.0,16.8,29.94,SW,215,0.0,0.0,80,0.00,,---,0.00,VWS V14.01,2013-01-16 14:50:00,
2013-01-16 09:55:00,22.6,17.4,29.94,SW,215,0.0,0.0,80,0.00,,---,0.00,VWS V14.01,2013-01-16 14:55:00,
2013-01-16 10:00:00,22.9,17.4,29.94,WSW,238,0.0,0.0,79,0.00,,---,0.00,VWS V14.01,2013-01-16 15:00:00,
2013-01-16 10:05:00,23.1,17.6,29.94,SW,215,0.0,0.0,79,0.00,,---,0.00,VWS V14.01,2013-01-16 15:05:00,
2013-01-16 10:10:00,24.0,18.2,29.94,SW,215,0.0,0.0,78,0.00,,---,0.00,VWS V14.01,2013-01-16 15:10:00,
2013-01-16 10:15:00,24.9,18.7,29.94,WSW,238,0.0,0.0,77,0.00,,---,0.00,VWS V14.01,2013-01-16 15:15:00,
2013-01-16 10:20:00,24.9,18.7,29.94,SW,215,0.0,0.0,77,0.00,,---,0.00,VWS V14.01,2013-01-16 15:20:00,
2013-01-16 10:25:00,25.5,18.6,29.94,SW,215,0.0,0.0,75,0.00,,---,0.00,VWS V14.01,2013-01-16 15:25:00,
2013-01-16 10:30:00,25.8,18.4,29.94,South,170,0.0,0.0,73,0.00,,---,0.00,VWS V14.01,2013-01-16 15:30:00,
2013-01-16 10:35:00,26.0,18.2,29.91,West,260,0.0,0.0,72,0.00,,---,0.00,VWS V14.01,2013-01-16 15:35:00,
2013-01-16 10:40:00,26.2,17.8,29.91,SW,215,0.0,0.0,70,0.00,,---,0.00,VWS V14.01,2013-01-16 15:40:00,
2013-01-16 10:45:00,26.4,17.6,29.91,West,260,0.0,0.0,69,0.00,,---,0.00,VWS V14.01,2013-01-16 15:45:00,
2013-01-16 10:50:00,26.4,16.9,29.91,WSW,238,0.0,0.0,67,0.00,,---,0.00,VWS V14.01,2013-01-16 15:50:00,
2013-01-16 10:55:00,26.7,17.2,29.91,WSW,238,0.0,0.0,67,0.00,,---,0.00,VWS V14.01,2013-01-16 15:55:00,
2013-01-16 11:01:00,27.1,17.6,29.91,SW,215,0.0,0.0,67,0.00,,---,0.00,VWS V14.01,2013-01-16 16:01:00,
2013-01-16 11:06:00,27.3,17.4,29.91,South,170,0.0,0.0,66,0.00,,---,0.00,VWS V14.01,2013-01-16 16:06:00,
2013-01-16 11:11:00,27.4,16.9,29.91,SW,215,0.0,0.0,64,0.00,,---,0.00,VWS V14.01,2013-01-16 16:11:00,
2013-01-16 11:16:00,27.8,17.2,29.91,SW,215,0.0,0.0,64,0.00,,---,0.00,VWS V14.01,2013-01-16 16:16:00,
2013-01-16 11:21:00,28.0,16.7,29.88,SW,215,0.0,0.0,62,0.00,,---,0.00,VWS V14.01,2013-01-16 16:21:00,
2013-01-16 11:26:00,28.2,16.1,29.88,West,260,0.0,0.0,60,0.00,,---,0.00,VWS V14.01,2013-01-16 16:26:00,
2013-01-16 11:31:00,28.3,16.6,29.88,SW,215,0.0,0.0,61,0.00,,---,0.00,VWS V14.01,2013-01-16 16:31:00,
2013-01-16 11:36:00,28.5,15.6,29.88,SW,215,0.0,0.0,58,0.00,,---,0.00,VWS V14.01,2013-01-16 16:36:00,
2013-01-16 11:41:00,28.9,15.6,29.88,SW,215,11.9,11.9,57,0.00,,---,0.00,VWS V14.01,2013-01-16 16:41:00,
2013-01-16 11:46:00,29.8,15.6,29.85,West,260,4.6,7.3,55,0.00,,---,0.00,VWS V14.01,2013-01-16 16:46:00,
2013-01-16 11:51:00,30.0,14.9,29.85,SW,215,15.2,15.2,53,0.00,,---,0.00,VWS V14.01,2013-01-16 16:51:00,
2013-01-16 11:56:00,30.5,15.0,29.85,West,260,15.2,15.2,52,0.00,,---,0.00,VWS V14.01,2013-01-16 16:56:00,
2013-01-16 12:01:00,31.0,15.5,29.85,SW,215,15.9,15.9,52,0.00,,---,0.00,VWS V14.01,2013-01-16 17:01:00,
2013-01-16 12:06:00,31.8,16.2,29.85,WSW,238,8.3,8.6,52,0.00,,---,0.00,VWS V14.01,2013-01-16 17:06:00,
2013-01-16 12:11:00,32.1,16.5,29.85,WSW,238,5.6,20.2,52,0.00,,---,0.00,VWS V14.01,2013-01-16 17:11:00,
2013-01-16 12:16:00,32.3,16.7,29.88,WSW,238,11.6,11.6,52,0.00,,---,0.00,VWS V14.01,2013-01-16 17:16:00,
2013-01-16 12:21:00,32.3,15.8,29.88,SW,215,4.0,14.6,50,0.00,,---,0.00,VWS V14.01,2013-01-16 17:21:00,
2013-01-16 12:26:00,33.0,16.9,29.88,SW,215,7.3,7.3,51,0.00,,---,0.00,VWS V14.01,2013-01-16 17:26:00,
2013-01-16 12:31:00,33.2,17.0,29.85,West,260,8.9,13.9,51,0.00,,---,0.00,VWS V14.01,2013-01-16 17:31:00,
2013-01-16 12:36:00,33.4,16.3,29.85,SW,215,9.3,9.3,49,0.00,,---,0.00,VWS V14.01,2013-01-16 17:36:00,
2013-01-16 12:41:00,33.2,15.2,29.85,West,260,6.3,15.6,47,0.00,,---,0.00,VWS V14.01,2013-01-16 17:41:00,
2013-01-16 12:46:00,33.4,14.8,29.85,SW,215,4.6,8.9,46,0.00,,---,0.00,VWS V14.01,2013-01-16 17:46:00,
2013-01-16 12:52:00,33.9,15.3,29.85,West,260,4.6,15.2,46,0.00,,---,0.00,VWS V14.01,2013-01-16 17:52:00,
2013-01-16 12:57:00,33.9,15.3,29.85,West,260,12.6,12.6,46,0.00,,---,0.00,VWS V14.01,2013-01-16 17:57:00,
2013-01-16 13:02:00,34.3,16.2,29.85,WSW,238,8.9,8.9,47,0.00,,---,0.00,VWS V14.01,2013-01-16 18:02:00,
2013-01-16 13:07:00,34.6,16.5,29.85,SW,215,6.3,6.3,47,0.00,,---,0.00,VWS V14.01,2013-01-16 18:07:00,
2013-01-16 13:12:00,34.5,15.8,29.85,WNW,282,19.2,19.2,46,0.00,,---,0.00,VWS V14.01,2013-01-16 18:12:00,
2013-01-16 13:17:00,34.5,15.8,29.82,West,260,8.9,8.9,46,0.00,,---,0.00,VWS V14.01,2013-01-16 18:17:00,
2013-01-16 13:22:00,34.3,15.2,29.82,SW,215,4.0,12.6,45,0.00,,---,0.00,VWS V14.01,2013-01-16 18:22:00,
2013-01-16 13:27:00,34.8,15.7,29.82,West,260,7.9,8.9,45,0.00,,---,0.00,VWS V14.01,2013-01-16 18:27:00,
2013-01-16 13:32:00,34.8,15.7,29.82,SW,215,14.9,14.9,45,0.00,,---,0.00,VWS V14.01,2013-01-16 18:32:00,
2013-01-16 13:37:00,34.8,15.1,29.82,SW,215,19.9,22.9,44,0.00,,---,0.00,VWS V14.01,2013-01-16 18:37:00,
2013-01-16 13:42:00,34.3,14.1,29.82,SW,215,15.2,15.9,43,0.00,,---,0.00,VWS V14.01,2013-01-16 18:42:00,
2013-01-16 13:47:00,34.6,14.4,29.82,West,260,10.9,10.9,43,0.00,,---,0.00,VWS V14.01,2013-01-16 18:47:00,
2013-01-16 13:52:00,34.6,14.4,29.82,SW,215,8.3,8.3,43,0.00,,---,0.00,VWS V14.01,2013-01-16 18:52:00,
2013-01-16 13:57:00,34.6,14.4,29.82,SW,215,6.3,16.2,43,0.00,,---,0.00,VWS V14.01,2013-01-16 18:57:00,
2013-01-16 14:02:00,34.8,14.6,29.82,SW,215,7.9,7.9,43,0.00,,---,0.00,VWS V14.01,2013-01-16 19:02:00,
2013-01-16 14:07:00,35.2,14.9,29.82,West,260,8.9,12.9,43,0.00,,---,0.00,VWS V14.01,2013-01-16 19:07:00,
2013-01-16 14:12:00,35.5,15.3,29.82,SW,215,15.9,15.9,43,0.00,,---,0.00,VWS V14.01,2013-01-16 19:12:00,
2013-01-16 14:17:00,35.5,15.3,29.79,SW,215,8.6,8.9,43,0.00,,---,0.00,VWS V14.01,2013-01-16 19:17:00,
2013-01-16 14:22:00,35.5,15.3,29.79,West,260,9.6,9.6,43,0.00,,---,0.00,VWS V14.01,2013-01-16 19:22:00,
2013-01-16 14:27:00,35.2,14.4,29.79,SW,215,7.9,14.9,42,0.00,,---,0.00,VWS V14.01,2013-01-16 19:27:00,
2013-01-16 14:32:00,34.6,14.4,29.82,SW,215,9.6,9.6,43,0.00,,---,0.00,VWS V14.01,2013-01-16 19:32:00,
2013-01-16 14:37:00,34.3,14.1,29.82,West,260,14.9,16.6,43,0.00,,---,0.00,VWS V14.01,2013-01-16 19:37:00,
2013-01-16 14:43:00,34.3,14.1,29.82,WSW,238,11.6,11.6,43,0.00,,---,0.00,VWS V14.01,2013-01-16 19:43:00,
2013-01-16 14:48:00,34.1,14.0,29.82,SW,215,4.6,12.9,43,0.00,,---,0.00,VWS V14.01,2013-01-16 19:48:00,
2013-01-16 14:53:00,33.9,13.8,29.82,SW,215,14.6,14.6,43,0.00,,---,0.00,VWS V14.01,2013-01-16 19:53:00,
2013-01-16 14:58:00,33.9,14.3,29.82,SW,215,16.2,16.2,44,0.00,,---,0.00,VWS V14.01,2013-01-16 19:58:00,
2013-01-16 15:03:00,33.7,13.6,29.82,SW,215,14.6,18.5,43,0.00,,---,0.00,VWS V14.01,2013-01-16 20:03:00,
2013-01-16 15:08:00,33.7,13.6,29.82,SW,215,6.3,12.9,43,0.00,,---,0.00,VWS V14.01,2013-01-16 20:08:00,
2013-01-16 15:13:00,33.9,14.3,29.82,SW,215,14.9,14.9,44,0.00,,---,0.00,VWS V14.01,2013-01-16 20:13:00,
2013-01-16 15:18:00,33.7,14.2,29.79,South,170,12.6,12.6,44,0.00,,---,0.00,VWS V14.01,2013-01-16 20:18:00,
2013-01-16 15:23:00,33.7,14.2,29.79,WSW,238,16.2,16.2,44,0.00,,---,0.00,VWS V14.01,2013-01-16 20:23:00,
2013-01-16 15:28:00,33.7,14.2,29.79,WSW,238,6.3,6.3,44,0.00,,---,0.00,VWS V14.01,2013-01-16 20:28:00,
2013-01-16 15:33:00,33.7,14.2,29.79,SW,215,14.9,14.9,44,0.00,,---,0.00,VWS V14.01,2013-01-16 20:33:00,
2013-01-16 15:38:00,33.6,14.0,29.79,SW,215,15.9,18.5,44,0.00,,---,0.00,VWS V14.01,2013-01-16 20:38:00,
2013-01-16 15:43:00,33.4,13.8,29.79,West,260,13.9,13.9,44,0.00,,---,0.00,VWS V14.01,2013-01-16 20:43:00,
2013-01-16 15:48:00,33.4,13.8,29.79,West,260,15.9,15.9,44,0.00,,---,0.00,VWS V14.01,2013-01-16 20:48:00,
2013-01-16 15:53:00,33.2,13.7,29.79,SW,215,14.6,19.9,44,0.00,,---,0.00,VWS V14.01,2013-01-16 20:53:00,
2013-01-16 15:58:00,33.2,13.7,29.79,SW,215,19.2,19.2,44,0.00,,---,0.00,VWS V14.01,2013-01-16 20:58:00,
2013-01-16 16:03:00,33.2,13.7,29.79,SW,215,7.3,12.6,44,0.00,,---,0.00,VWS V14.01,2013-01-16 21:03:00,
2013-01-16 16:08:00,33.0,14.0,29.79,SW,215,10.6,10.6,45,0.00,,---,0.00,VWS V14.01,2013-01-16 21:08:00,
2013-01-16 16:13:00,33.0,14.0,29.79,SW,215,12.6,12.6,45,0.00,,---,0.00,VWS V14.01,2013-01-16 21:13:00,
2013-01-16 16:18:00,33.0,14.0,29.82,WSW,238,11.9,11.9,45,0.00,,---,0.00,VWS V14.01,2013-01-16 21:18:00,
2013-01-16 16:23:00,33.0,14.0,29.82,SW,215,13.6,13.6,45,0.00,,---,0.00,VWS V14.01,2013-01-16 21:23:00,
2013-01-16 16:28:00,32.8,14.4,29.82,WSW,238,7.9,7.9,46,0.00,,---,0.00,VWS V14.01,2013-01-16 21:28:00,
2013-01-16 16:33:00,32.8,14.4,29.82,SW,215,4.6,14.2,46,0.00,,---,0.00,VWS V14.01,2013-01-16 21:33:00,
2013-01-16 16:38:00,32.8,14.4,29.82,West,260,14.9,14.9,46,0.00,,---,0.00,VWS V14.01,2013-01-16 21:38:00,
2013-01-16 16:44:00,32.8,14.4,29.82,WSW,238,7.9,11.3,46,0.00,,---,0.00,VWS V14.01,2013-01-16 21:44:00,
2013-01-16 16:49:00,32.8,14.8,29.82,SW,215,14.9,14.9,47,0.00,,---,0.00,VWS V14.01,2013-01-16 21:49:00,
2013-01-16 16:54:00,32.8,14.8,29.82,SW,215,15.9,15.9,47,0.00,,---,0.00,VWS V14.01,2013-01-16 21:54:00,
2013-01-16 16:59:00,32.8,14.8,29.82,SW,215,9.6,15.9,47,0.00,,---,0.00,VWS V14.01,2013-01-16 21:59:00,
2013-01-16 17:04:00,32.8,15.3,29.85,West,260,11.9,11.9,48,0.00,,---,0.00,VWS V14.01,2013-01-16 22:04:00,
2013-01-16 17:09:00,32.8,15.3,29.85,SW,215,9.3,9.3,48,0.00,,---,0.00,VWS V14.01,2013-01-16 22:09:00,
2013-01-16 17:14:00,32.8,15.3,29.85,WNW,282,8.9,8.9,48,0.00,,---,0.00,VWS V14.01,2013-01-16 22:14:00,
2013-01-16 17:19:00,32.8,15.3,29.82,SW,215,12.6,12.6,48,0.00,,---,0.00,VWS V14.01,2013-01-16 22:19:00,
2013-01-16 17:24:00,32.8,15.8,29.82,West,260,6.0,6.0,49,0.00,,---,0.00,VWS V14.01,2013-01-16 22:24:00,
2013-01-16 17:29:00,32.8,15.8,29.82,SW,215,11.9,11.9,49,0.00,,---,0.00,VWS V14.01,2013-01-16 22:29:00,
2013-01-16 17:34:00,32.7,16.1,29.85,SW,215,9.3,9.3,50,0.00,,---,0.00,VWS V14.01,2013-01-16 22:34:00,
2013-01-16 17:39:00,32.7,16.1,29.85,SW,215,5.6,10.6,50,0.00,,---,0.00,VWS V14.01,2013-01-16 22:39:00,
2013-01-16 17:44:00,32.7,16.1,29.85,SW,215,8.9,9.6,50,0.00,,---,0.00,VWS V14.01,2013-01-16 22:44:00,
2013-01-16 17:49:00,32.7,16.5,29.85,SW,215,8.9,8.9,51,0.00,,---,0.00,VWS V14.01,2013-01-16 22:49:00,
2013-01-16 17:54:00,32.7,16.5,29.85,NW,305,12.9,12.9,51,0.00,,---,0.00,VWS V14.01,2013-01-16 22:54:00,
2013-01-16 17:59:00,32.7,16.5,29.85,West,260,11.9,11.9,51,0.00,,---,0.00,VWS V14.01,2013-01-16 22:59:00,
2013-01-16 18:04:00,32.7,16.5,29.85,West,260,12.9,12.9,51,0.00,,---,0.00,VWS V14.01,2013-01-16 23:04:00,
2013-01-16 18:09:00,32.8,17.2,29.85,SW,215,10.9,18.5,52,0.00,,---,0.00,VWS V14.01,2013-01-16 23:09:00,
2013-01-16 18:14:00,32.7,17.4,29.85,SW,215,8.9,8.9,53,0.00,,---,0.00,VWS V14.01,2013-01-16 23:14:00,
2013-01-16 18:19:00,32.7,17.4,29.85,West,260,8.3,8.6,53,0.00,,---,0.00,VWS V14.01,2013-01-16 23:19:00,
2013-01-16 18:25:00,32.7,17.4,29.85,West,260,8.3,8.3,53,0.00,,---,0.00,VWS V14.01,2013-01-16 23:25:00,
2013-01-16 18:30:00,32.7,17.4,29.85,West,260,6.0,6.0,53,0.00,,---,0.00,VWS V14.01,2013-01-16 23:30:00,
2013-01-16 18:35:00,32.7,17.4,29.85,West,260,5.3,5.3,53,0.00,,---,0.00,VWS V14.01,2013-01-16 23:35:00,
2013-01-16 18:40:00,32.5,18.1,29.85,NW,305,21.2,21.2,55,0.00,,---,0.00,VWS V14.01,2013-01-16 23:40:00,
2013-01-16 18:45:00,32.5,18.5,29.85,West,260,11.3,11.3,56,0.00,,---,0.00,VWS V14.01,2013-01-16 23:45:00,
2013-01-16 18:50:00,32.5,19.0,29.85,West,260,11.3,11.3,57,0.00,,---,0.00,VWS V14.01,2013-01-16 23:50:00,
2013-01-16 18:55:00,32.5,19.0,29.85,SW,215,9.3,11.3,57,0.00,,---,0.00,VWS V14.01,2013-01-16 23:55:00,
2013-01-16 19:00:00,32.5,19.4,29.85,WNW,282,9.6,9.6,58,0.00,,---,0.00,VWS V14.01,2013-01-17 00:00:00,
2013-01-16 19:05:00,32.5,19.4,29.88,SW,215,9.6,9.6,58,0.00,,---,0.00,VWS V14.01,2013-01-17 00:05:00,
2013-01-16 19:10:00,32.5,19.4,29.88,West,260,8.3,8.9,58,0.00,,---,0.00,VWS V14.01,2013-01-17 00:10:00,
2013-01-16 19:15:00,32.5,19.8,29.88,West,260,8.6,11.6,59,0.00,,---,0.00,VWS V14.01,2013-01-17 00:15:00,
2013-01-16 19:20:00,32.5,20.1,29.88,West,260,18.2,18.2,60,0.00,,---,0.00,VWS V14.01,2013-01-17 00:20:00,
2013-01-16 19:25:00,32.3,20.0,29.88,WSW,238,8.3,11.9,60,0.00,,---,0.00,VWS V14.01,2013-01-17 00:25:00,
2013-01-16 19:30:00,32.1,20.6,29.88,West,260,8.3,8.3,62,0.00,,---,0.00,VWS V14.01,2013-01-17 00:30:00,
2013-01-16 19:35:00,32.1,21.0,29.88,WNW,282,19.9,19.9,63,0.00,,---,0.00,VWS V14.01,2013-01-17 00:35:00,
2013-01-16 19:40:00,31.9,21.2,29.88,West,260,7.3,11.9,64,0.00,,---,0.00,VWS V14.01,2013-01-17 00:40:00,
2013-01-16 19:45:00,31.9,21.5,29.88,SW,215,4.3,10.9,65,0.00,,---,0.00,VWS V14.01,2013-01-17 00:45:00,
2013-01-16 19:50:00,31.9,21.5,29.88,West,260,9.3,12.6,65,0.00,,---,0.00,VWS V14.01,2013-01-17 00:50:00,
2013-01-16 19:56:00,31.9,21.9,29.88,SW,215,12.6,12.6,66,0.00,,---,0.00,VWS V14.01,2013-01-17 00:56:00,
2013-01-16 20:01:00,31.9,21.9,29.88,SW,215,8.6,9.6,66,0.00,,---,0.00,VWS V14.01,2013-01-17 01:01:00,
2013-01-16 20:06:00,31.9,22.6,29.88,WSW,238,7.3,12.6,68,0.00,,---,0.00,VWS V14.01,2013-01-17 01:06:00,
2013-01-16 20:11:00,31.8,22.1,29.88,WSW,238,8.9,8.9,67,0.00,,---,0.00,VWS V14.01,2013-01-17 01:11:00,
2013-01-16 20:16:00,31.8,22.4,29.88,SW,215,7.9,7.9,68,0.00,,---,0.00,VWS V14.01,2013-01-17 01:16:00,
2013-01-16 20:21:00,31.9,22.6,29.88,West,260,8.9,8.9,68,0.00,,---,0.00,VWS V14.01,2013-01-17 01:21:00,
2013-01-16 20:26:00,31.9,22.6,29.88,SW,215,7.3,7.3,68,0.00,,---,0.00,VWS V14.01,2013-01-17 01:26:00,
2013-01-16 20:31:00,31.9,22.6,29.91,SW,215,8.9,8.9,68,0.00,,---,0.00,VWS V14.01,2013-01-17 01:31:00,
2013-01-16 20:36:00,31.9,22.9,29.91,SW,215,8.9,8.9,69,0.00,,---,0.00,VWS V14.01,2013-01-17 01:36:00,
2013-01-16 20:42:00,32.1,23.1,29.91,WSW,238,5.0,5.0,69,0.00,,---,0.00,VWS V14.01,2013-01-17 01:42:00,
2013-01-16 20:47:00,32.1,23.5,29.91,West,260,11.3,11.3,70,0.00,,---,0.00,VWS V14.01,2013-01-17 01:47:00,
2013-01-16 20:52:00,32.3,23.6,29.91,West,260,8.6,11.3,70,0.00,,---,0.00,VWS V14.01,2013-01-17 01:52:00,
2013-01-16 20:57:00,32.5,23.8,29.91,West,260,7.3,7.3,70,0.00,,---,0.00,VWS V14.01,2013-01-17 01:57:00,
2013-01-16 21:02:00,32.5,24.1,29.91,West,260,8.6,8.6,71,0.00,,---,0.00,VWS V14.01,2013-01-17 02:02:00,
2013-01-16 21:07:00,32.7,24.6,29.91,West,260,10.6,10.6,72,0.00,,---,0.00,VWS V14.01,2013-01-17 02:07:00,
2013-01-16 21:12:00,32.7,24.6,29.91,SW,215,9.3,9.3,72,0.00,,---,0.00,VWS V14.01,2013-01-17 02:12:00,
2013-01-16 21:17:00,32.7,24.6,29.91,West,260,8.3,8.3,72,0.00,,---,0.00,VWS V14.01,2013-01-17 02:17:00,
2013-01-16 21:22:00,32.8,24.8,29.91,West,260,8.3,8.3,72,0.00,,---,0.00,VWS V14.01,2013-01-17 02:22:00,
2013-01-16 21:27:00,32.8,24.8,29.91,West,260,19.5,19.5,72,0.00,,---,0.00,VWS V14.01,2013-01-17 02:27:00,
2013-01-16 21:33:00,33.0,25.0,29.91,West,260,19.5,19.5,72,0.00,,---,0.00,VWS V14.01,2013-01-17 02:33:00,
2013-01-16 21:38:00,33.0,25.0,29.91,WSW,238,8.9,8.9,72,0.00,,---,0.00,VWS V14.01,2013-01-17 02:38:00,
2013-01-16 21:43:00,33.0,25.0,29.91,West,260,5.3,5.3,72,0.00,,---,0.00,VWS V14.01,2013-01-17 02:43:00,
2013-01-16 21:48:00,33.0,25.0,29.91,NW,305,7.9,7.9,72,0.00,,---,0.00,VWS V14.01,2013-01-17 02:48:00,
2013-01-16 21:53:00,33.0,25.0,29.91,West,260,8.6,8.6,72,0.00,,---,0.00,VWS V14.01,2013-01-17 02:53:00,
2013-01-16 21:58:00,33.0,25.0,29.91,West,260,8.6,8.6,72,0.00,,---,0.00,VWS V14.01,2013-01-17 02:58:00,
2013-01-16 22:03:00,33.0,25.0,29.91,West,260,8.6,8.6,72,0.00,,---,0.00,VWS V14.01,2013-01-17 03:03:00,
2013-01-16 22:08:00,33.2,25.2,29.91,SW,215,8.3,8.3,72,0.00,,---,0.00,VWS V14.01,2013-01-17 03:08:00,
2013-01-16 22:13:00,33.2,25.2,29.91,SW,215,8.3,8.3,72,0.00,,---,0.00,VWS V14.01,2013-01-17 03:13:00,
2013-01-16 22:19:00,33.2,25.2,29.94,SW,215,8.3,8.3,72,0.00,,---,0.00,VWS V14.01,2013-01-17 03:19:00,
2013-01-16 22:24:00,33.2,25.2,29.94,West,260,11.3,11.3,72,0.00,,---,0.00,VWS V14.01,2013-01-17 03:24:00,
2013-01-16 22:29:00,33.2,25.2,29.94,West,260,6.0,6.0,72,0.00,,---,0.00,VWS V14.01,2013-01-17 03:29:00,
2013-01-16 22:34:00,33.0,25.3,29.94,West,260,6.0,6.0,73,0.00,,---,0.00,VWS V14.01,2013-01-17 03:34:00,
2013-01-16 22:39:00,33.0,25.3,29.94,SW,215,5.3,5.3,73,0.00,,---,0.00,VWS V14.01,2013-01-17 03:39:00,
2013-01-16 22:44:00,33.0,25.3,29.94,NW,305,3.3,3.3,73,0.00,,---,0.00,VWS V14.01,2013-01-17 03:44:00,
2013-01-16 22:49:00,33.0,25.3,29.94,NW,305,3.3,3.3,73,0.00,,---,0.00,VWS V14.01,2013-01-17 03:49:00,
2013-01-16 22:54:00,33.0,25.3,29.94,NW,305,3.3,3.3,73,0.00,,---,0.00,VWS V14.01,2013-01-17 03:54:00,
2013-01-16 22:59:00,33.0,25.6,29.94,NW,305,3.3,3.3,74,0.00,,---,0.00,VWS V14.01,2013-01-17 03:59:00,
2013-01-16 23:05:00,33.0,25.6,29.94,NW,305,3.3,3.3,74,0.00,,---,0.00,VWS V14.01,2013-01-17 04:05:00,
2013-01-16 23:10:00,33.0,25.6,29.94,NW,305,3.3,3.3,74,0.00,,---,0.00,VWS V14.01,2013-01-17 04:10:00,
2013-01-16 23:15:00,33.0,25.6,29.94,NW,305,3.3,3.3,74,0.00,,---,0.00,VWS V14.01,2013-01-17 04:15:00,
2013-01-16 23:20:00,33.2,25.8,29.94,NW,305,3.3,3.3,74,0.00,,---,0.00,VWS V14.01,2013-01-17 04:20:00,
2013-01-16 23:25:00,33.2,25.8,29.94,NW,305,3.3,3.3,74,0.00,,---,0.00,VWS V14.01,2013-01-17 04:25:00,
2013-01-16 23:30:00,33.2,25.8,29.94,West,260,4.6,4.6,74,0.00,,---,0.00,VWS V14.01,2013-01-17 04:30:00,
2013-01-16 23:35:00,33.2,25.8,29.94,West,260,4.6,4.6,74,0.00,,---,0.00,VWS V14.01,2013-01-17 04:35:00,
2013-01-16 23:40:00,33.2,25.8,29.94,WNW,282,4.6,4.6,74,0.00,,---,0.00,VWS V14.01,2013-01-17 04:40:00,
2013-01-16 23:46:00,33.2,25.8,29.94,West,260,7.3,7.3,74,0.00,,---,0.00,VWS V14.01,2013-01-17 04:46:00,
2013-01-16 23:51:00,33.2,25.8,29.97,NW,305,4.0,4.0,74,0.00,,---,0.00,VWS V14.01,2013-01-17 04:51:00,
2013-01-16 23:56:00,33.2,25.8,29.97,NW,305,4.0,4.0,74,0.00,,---,0.00,VWS V14.01,2013-01-17 04:56:00,